createdAt,value
2019-01-15T00:00:43.898Z,1004.01
2019-01-15T00:01:44.111Z,1003.98
2019-01-15T00:02:43.724Z,1004.10
2019-01-15T00:03:43.638Z,1004.04
2019-01-15T00:04:43.561Z,1004.01
2019-01-15T00:05:43.461Z,1003.97
2019-01-15T00:06:43.376Z,1004.02
2019-01-15T00:07:43.301Z,1004.03
2019-01-15T00:08:43.199Z,1004.00
2019-01-15T00:09:43.111Z,1004.05
2019-01-15T00:10:43.024Z,1004.08
2019-01-15T00:11:42.937Z,1004.11
2019-01-15T00:12:42.849Z,1003.98
2019-01-15T00:13:42.762Z,1004.09
2019-01-15T00:14:42.676Z,1004.04
2019-01-15T00:15:42.600Z,1004.09
2019-01-15T00:16:42.500Z,1004.03
2019-01-15T00:17:42.416Z,1004.06
2019-01-15T00:18:42.325Z,1004.12
2019-01-15T00:19:42.237Z,1004.10
2019-01-15T00:20:42.150Z,1004.18
2019-01-15T00:21:42.062Z,1004.06
2019-01-15T00:22:41.978Z,1004.06
2019-01-15T00:23:41.887Z,1004.08
2019-01-15T00:24:41.801Z,1003.97
2019-01-15T00:25:41.713Z,1003.96
2019-01-15T00:26:41.627Z,1004.06
2019-01-15T00:27:41.552Z,1004.01
2019-01-15T00:28:41.452Z,1004.08
2019-01-15T00:29:41.365Z,1004.08
2019-01-15T00:30:41.281Z,1004.10
2019-01-15T00:31:41.189Z,1004.08
2019-01-15T00:32:41.102Z,1004.01
2019-01-15T00:33:41.014Z,1004.10
2019-01-15T00:34:40.929Z,1004.23
2019-01-15T00:35:40.839Z,1004.19
2019-01-15T00:36:41.758Z,1004.15
2019-01-15T00:37:40.665Z,1004.10
2019-01-15T00:38:40.578Z,1004.14
2019-01-15T00:39:40.493Z,1004.11
2019-01-15T00:40:40.403Z,1004.09
2019-01-15T00:41:40.315Z,1004.15
2019-01-15T00:42:40.230Z,1004.08
2019-01-15T00:43:40.140Z,1004.20
2019-01-15T00:44:40.053Z,1004.08
2019-01-15T00:45:39.979Z,1004.03
2019-01-15T00:46:39.879Z,1004.21
2019-01-15T00:47:39.795Z,1004.01
2019-01-15T00:48:39.706Z,1004.07
2019-01-15T00:49:39.619Z,1004.03
2019-01-15T00:50:39.530Z,1004.17
2019-01-15T00:51:39.442Z,1004.12
2019-01-15T00:52:39.355Z,1004.22
2019-01-15T00:53:39.283Z,1004.17
2019-01-15T00:54:39.191Z,1004.16
2019-01-15T00:55:39.093Z,1004.22
2019-01-15T00:56:39.279Z,1004.18
2019-01-15T00:57:38.929Z,1004.18
2019-01-15T00:58:38.842Z,1004.25
2019-01-15T00:59:38.744Z,1004.18
2019-01-15T01:00:38.667Z,1004.12
2019-01-15T01:01:38.583Z,1004.25
2019-01-15T01:02:38.493Z,1004.18
2019-01-15T01:03:38.406Z,1004.19
2019-01-15T01:04:38.331Z,1004.14
2019-01-15T01:05:38.231Z,1004.20
2019-01-15T01:06:38.143Z,1004.19
2019-01-15T01:07:38.059Z,1004.22
2019-01-15T01:08:37.968Z,1004.23
2019-01-15T01:09:37.883Z,1004.17
2019-01-15T01:10:37.793Z,1004.24
2019-01-15T01:11:37.706Z,1004.19
2019-01-15T01:12:37.632Z,1004.22
2019-01-15T01:13:37.532Z,1004.25
2019-01-15T01:14:37.443Z,1004.26
2019-01-15T01:15:37.358Z,1004.24
2019-01-15T01:16:37.271Z,1004.28
2019-01-15T01:17:37.182Z,1004.29
2019-01-15T01:18:37.094Z,1004.31
2019-01-15T01:19:37.007Z,1004.30
2019-01-15T01:20:37.213Z,1004.36
2019-01-15T01:21:36.832Z,1004.29
2019-01-15T01:22:36.757Z,1004.28
2019-01-15T01:23:36.658Z,1004.33
2019-01-15T01:24:36.571Z,1004.39
2019-01-15T01:25:36.482Z,1004.30
2019-01-15T01:26:36.395Z,1004.33
2019-01-15T01:27:36.324Z,1004.35
2019-01-15T01:28:36.220Z,1004.33
2019-01-15T01:29:36.133Z,1004.39
2019-01-15T01:30:36.047Z,1004.43
2019-01-15T01:31:35.958Z,1004.42
2019-01-15T01:32:35.871Z,1004.46
2019-01-15T01:33:35.784Z,1004.50
2019-01-15T01:34:35.696Z,1004.52
2019-01-15T01:35:35.609Z,1004.49
2019-01-15T01:36:35.521Z,1004.47
2019-01-15T01:37:35.439Z,1004.41
2019-01-15T01:38:35.347Z,1004.47
2019-01-15T01:39:35.259Z,1004.49
2019-01-15T01:40:35.174Z,1004.45
2019-01-15T01:41:35.087Z,1004.52
2019-01-15T01:42:34.998Z,1004.46
2019-01-15T01:43:34.912Z,1004.52
2019-01-15T01:44:34.822Z,1004.60
2019-01-15T01:45:34.735Z,1004.61
2019-01-15T01:46:34.648Z,1004.63
2019-01-15T01:47:34.560Z,1004.64
2019-01-15T01:48:34.473Z,1004.67
2019-01-15T01:49:34.385Z,1004.62
2019-01-15T01:50:34.299Z,1004.67
2019-01-15T01:51:34.210Z,1004.68
2019-01-15T01:52:34.123Z,1004.67
2019-01-15T01:53:34.039Z,1004.69
2019-01-15T01:54:33.948Z,1004.71
2019-01-15T01:55:33.861Z,1004.74
2019-01-15T01:56:33.773Z,1004.74
2019-01-15T01:57:33.687Z,1004.69
2019-01-15T01:58:33.611Z,1004.70
2019-01-15T01:59:33.514Z,1004.79
2019-01-15T02:00:33.428Z,1004.76
2019-01-15T02:01:33.337Z,1004.70
2019-01-15T02:02:33.250Z,1004.76
2019-01-15T02:03:33.162Z,1004.80
2019-01-15T02:04:33.076Z,1004.81
2019-01-15T02:05:33.002Z,1004.87
2019-01-15T02:06:32.901Z,1004.88
2019-01-15T02:07:32.816Z,1004.91
2019-01-15T02:08:32.738Z,1004.86
2019-01-15T02:09:32.651Z,1004.93
2019-01-15T02:10:32.564Z,1004.93
2019-01-15T02:11:32.475Z,1004.96
2019-01-15T02:12:36.797Z,1004.90
2019-01-15T02:13:32.300Z,1004.96
2019-01-15T02:14:32.214Z,1004.87
2019-01-15T02:15:32.126Z,1004.89
2019-01-15T02:16:32.039Z,1004.88
2019-01-15T02:17:31.950Z,1004.89
2019-01-15T02:18:31.864Z,1004.87
2019-01-15T02:19:31.789Z,1004.92
2019-01-15T02:20:31.690Z,1004.83
2019-01-15T02:21:31.901Z,1004.86
2019-01-15T02:22:31.519Z,1004.85
2019-01-15T02:23:31.426Z,1004.86
2019-01-15T02:24:31.339Z,1004.87
2019-01-15T02:25:31.253Z,1004.88
2019-01-15T02:26:31.165Z,1004.87
2019-01-15T02:27:31.090Z,1004.89
2019-01-15T02:28:30.990Z,1004.88
2019-01-15T02:29:30.902Z,1004.83
2019-01-15T02:30:30.820Z,1004.88
2019-01-15T02:31:30.821Z,1004.79
2019-01-15T02:32:30.641Z,1004.79
2019-01-15T02:33:30.554Z,1004.91
2019-01-15T02:34:30.466Z,1004.91
2019-01-15T02:35:30.391Z,1004.89
2019-01-15T02:36:30.291Z,1004.83
2019-01-15T02:37:30.205Z,1004.82
2019-01-15T02:38:30.117Z,1004.89
2019-01-15T02:39:30.033Z,1004.78
2019-01-15T02:40:29.941Z,1004.81
2019-01-15T02:41:30.103Z,1004.83
2019-01-15T02:42:29.768Z,1004.81
2019-01-15T02:43:29.680Z,1004.77
2019-01-15T02:44:29.594Z,1004.88
2019-01-15T02:45:29.503Z,1004.90
2019-01-15T02:46:29.418Z,1004.89
2019-01-15T02:47:29.332Z,1004.85
2019-01-15T02:48:29.241Z,1004.93
2019-01-15T02:49:29.159Z,1004.97
2019-01-15T02:50:29.079Z,1004.97
2019-01-15T02:51:28.984Z,1004.99
2019-01-15T02:52:28.893Z,1005.00
2019-01-15T02:53:28.818Z,1005.05
2019-01-15T02:54:28.730Z,1004.98
2019-01-15T02:55:28.631Z,1004.95
2019-01-15T02:56:28.555Z,1004.90
2019-01-15T02:57:28.468Z,1004.97
2019-01-15T02:58:28.380Z,1004.96
2019-01-15T02:59:28.299Z,1004.98
2019-01-15T03:00:28.207Z,1004.92
2019-01-15T03:01:28.120Z,1004.98
2019-01-15T03:02:28.030Z,1004.90
2019-01-15T03:03:27.944Z,1004.89
2019-01-15T03:04:27.870Z,1004.91
2019-01-15T03:05:27.768Z,1004.90
2019-01-15T03:06:27.981Z,1004.88
2019-01-15T03:07:27.599Z,1004.88
2019-01-15T03:08:27.507Z,1004.92
2019-01-15T03:09:27.419Z,1004.99
2019-01-15T03:10:27.333Z,1004.84
2019-01-15T03:11:27.245Z,1005.04
2019-01-15T03:12:27.170Z,1005.03
2019-01-15T03:13:27.070Z,1005.07
2019-01-15T03:14:26.982Z,1005.07
2019-01-15T03:15:26.896Z,1005.03
2019-01-15T03:16:26.807Z,1005.08
2019-01-15T03:17:26.720Z,1005.02
2019-01-15T03:18:26.632Z,1005.11
2019-01-15T03:19:26.545Z,1005.14
2019-01-15T03:20:26.457Z,1005.12
2019-01-15T03:21:26.372Z,1005.14
2019-01-15T03:22:26.295Z,1005.13
2019-01-15T03:23:26.196Z,1005.17
2019-01-15T03:24:26.110Z,1005.17
2019-01-15T03:25:26.023Z,1005.17
2019-01-15T03:26:26.195Z,1005.12
2019-01-15T03:27:25.846Z,1005.04
2019-01-15T03:28:25.758Z,1005.14
2019-01-15T03:29:25.685Z,1005.17
2019-01-15T03:30:25.589Z,1005.18
2019-01-15T03:31:25.491Z,1005.10
2019-01-15T03:32:25.411Z,1005.17
2019-01-15T03:33:25.321Z,1005.18
2019-01-15T03:34:25.235Z,1005.23
2019-01-15T03:35:25.147Z,1005.15
2019-01-15T03:36:25.050Z,1005.21
2019-01-15T03:37:24.960Z,1005.14
2019-01-15T03:38:24.877Z,1005.22
2019-01-15T03:39:24.785Z,1005.24
2019-01-15T03:40:24.700Z,1005.15
2019-01-15T03:41:24.620Z,1005.09
2019-01-15T03:42:24.524Z,1005.18
2019-01-15T03:43:24.440Z,1005.14
2019-01-15T03:44:24.350Z,1005.17
2019-01-15T03:45:24.263Z,1005.25
2019-01-15T03:46:24.174Z,1005.26
2019-01-15T03:47:24.086Z,1005.19
2019-01-15T03:48:23.999Z,1005.22
2019-01-15T03:49:23.912Z,1005.14
2019-01-15T03:50:23.825Z,1005.18
2019-01-15T03:51:23.738Z,1005.15
2019-01-15T03:52:23.649Z,1005.11
2019-01-15T03:53:23.574Z,1005.21
2019-01-15T03:54:23.474Z,1005.17
2019-01-15T03:55:23.389Z,1005.17
2019-01-15T03:56:23.300Z,1005.23
2019-01-15T03:57:23.211Z,1005.18
2019-01-15T03:58:23.125Z,1005.24
2019-01-15T03:59:23.036Z,1005.19
2019-01-15T04:00:22.952Z,1005.20
2019-01-15T04:01:23.176Z,1005.19
2019-01-15T04:02:22.777Z,1005.19
2019-01-15T04:03:22.687Z,1005.15
2019-01-15T04:04:22.603Z,1005.17
2019-01-15T04:05:22.513Z,1005.23
2019-01-15T04:06:22.427Z,1005.10
2019-01-15T04:07:22.338Z,1005.09
2019-01-15T04:08:22.260Z,1005.16
2019-01-15T04:09:22.164Z,1005.12
2019-01-15T04:10:22.075Z,1005.18
2019-01-15T04:11:21.988Z,1005.22
2019-01-15T04:12:21.901Z,1005.20
2019-01-15T04:13:22.057Z,1005.20
2019-01-15T04:14:21.731Z,1005.25
2019-01-15T04:15:21.638Z,1005.26
2019-01-15T04:16:21.553Z,1005.27
2019-01-15T04:17:21.464Z,1005.20
2019-01-15T04:18:21.379Z,1005.29
2019-01-15T04:19:21.291Z,1005.33
2019-01-15T04:20:21.208Z,1005.27
2019-01-15T04:21:21.114Z,1005.37
2019-01-15T04:22:21.027Z,1005.44
2019-01-15T04:23:20.953Z,1005.35
2019-01-15T04:24:20.852Z,1005.33
2019-01-15T04:25:20.765Z,1005.46
2019-01-15T04:26:20.679Z,1005.41
2019-01-15T04:27:20.589Z,1005.47
2019-01-15T04:28:20.503Z,1005.50
2019-01-15T04:29:20.415Z,1005.45
2019-01-15T04:30:20.329Z,1005.52
2019-01-15T04:31:20.255Z,1005.53
2019-01-15T04:32:20.153Z,1005.44
2019-01-15T04:33:20.086Z,1005.47
2019-01-15T04:34:19.979Z,1005.37
2019-01-15T04:35:19.891Z,1005.39
2019-01-15T04:36:19.804Z,1005.41
2019-01-15T04:37:19.718Z,1005.50
2019-01-15T04:38:19.640Z,1005.39
2019-01-15T04:39:19.635Z,1005.47
2019-01-15T04:40:19.466Z,1005.48
2019-01-15T04:41:19.380Z,1005.48
2019-01-15T04:42:19.309Z,1005.51
2019-01-15T04:43:19.775Z,1005.43
2019-01-15T04:44:19.116Z,1005.44
2019-01-15T04:45:19.035Z,1005.47
2019-01-15T04:46:18.942Z,1005.54
2019-01-15T04:47:18.856Z,1005.44
2019-01-15T04:48:18.767Z,1005.47
2019-01-15T04:49:18.684Z,1005.44
2019-01-15T04:50:18.593Z,1005.40
2019-01-15T04:51:18.506Z,1005.36
2019-01-15T04:52:18.418Z,1005.48
2019-01-15T04:53:18.333Z,1005.41
2019-01-15T04:54:18.245Z,1005.41
2019-01-15T04:55:18.158Z,1005.36
2019-01-15T04:56:18.068Z,1005.36
2019-01-15T04:57:17.982Z,1005.41
2019-01-15T04:58:17.894Z,1005.31
2019-01-15T04:59:17.806Z,1005.32
2019-01-15T05:00:17.734Z,1005.32
2019-01-15T05:01:17.881Z,1005.23
2019-01-15T05:02:17.543Z,1005.35
2019-01-15T05:03:17.457Z,1005.28
2019-01-15T05:04:17.369Z,1005.29
2019-01-15T05:05:17.283Z,1005.28
2019-01-15T05:06:17.194Z,1005.20
2019-01-15T05:07:17.109Z,1005.25
2019-01-15T05:08:17.019Z,1005.23
2019-01-15T05:09:16.933Z,1005.23
2019-01-15T05:10:16.850Z,1005.15
2019-01-15T05:11:16.759Z,1005.14
2019-01-15T05:12:16.688Z,1005.15
2019-01-15T05:13:16.596Z,1005.15
2019-01-15T05:14:16.507Z,1005.12
2019-01-15T05:15:16.423Z,1005.01
2019-01-15T05:16:16.335Z,1005.18
2019-01-15T05:17:16.245Z,1005.07
2019-01-15T05:18:16.245Z,1005.08
2019-01-15T05:19:16.084Z,1005.02
2019-01-15T05:20:15.983Z,1004.98
2019-01-15T05:21:16.146Z,1004.99
2019-01-15T05:22:15.811Z,1005.04
2019-01-15T05:23:15.724Z,1004.98
2019-01-15T05:24:15.637Z,1005.04
2019-01-15T05:25:15.550Z,1005.00
2019-01-15T05:26:15.461Z,1005.01
2019-01-15T05:27:15.372Z,1005.02
2019-01-15T05:28:15.286Z,1004.97
2019-01-15T05:29:15.199Z,1005.04
2019-01-15T05:30:15.110Z,1005.12
2019-01-15T05:31:15.024Z,1005.03
2019-01-15T05:32:14.935Z,1004.97
2019-01-15T05:33:14.849Z,1005.01
2019-01-15T05:34:14.774Z,1005.05
2019-01-15T05:35:14.685Z,1005.02
2019-01-15T05:36:14.847Z,1005.04
2019-01-15T05:37:14.512Z,1005.05
2019-01-15T05:38:14.423Z,1005.14
2019-01-15T05:39:14.336Z,1005.12
2019-01-15T05:40:14.261Z,1005.00
2019-01-15T05:41:14.162Z,1004.99
2019-01-15T05:42:14.076Z,1004.93
2019-01-15T05:43:13.986Z,1005.07
2019-01-15T05:44:13.911Z,1004.99
2019-01-15T05:45:13.815Z,1005.03
2019-01-15T05:46:13.723Z,1005.06
2019-01-15T05:47:13.650Z,1005.07
2019-01-15T05:48:13.549Z,1005.04
2019-01-15T05:49:13.473Z,1005.10
2019-01-15T05:50:13.374Z,1005.05
2019-01-15T05:51:13.288Z,1005.12
2019-01-15T05:52:13.211Z,1005.16
2019-01-15T05:53:13.125Z,1005.15
2019-01-15T05:54:13.040Z,1005.09
2019-01-15T05:55:12.950Z,1005.16
2019-01-15T05:56:12.864Z,1005.09
2019-01-15T05:57:12.775Z,1005.06
2019-01-15T05:58:12.693Z,1005.10
2019-01-15T05:59:12.612Z,1005.05
2019-01-15T06:00:12.513Z,1005.05
2019-01-15T06:01:12.427Z,1005.07
2019-01-15T06:02:12.338Z,1005.04
2019-01-15T06:03:12.251Z,1005.07
2019-01-15T06:04:12.164Z,1005.04
2019-01-15T06:05:12.075Z,1005.06
2019-01-15T06:06:11.993Z,1005.10
2019-01-15T06:07:11.900Z,1005.07
2019-01-15T06:08:11.813Z,1005.05
2019-01-15T06:09:11.725Z,1005.10
2019-01-15T06:10:11.640Z,1005.14
2019-01-15T06:11:11.565Z,1005.08
2019-01-15T06:12:11.464Z,1005.05
2019-01-15T06:13:11.378Z,1005.08
2019-01-15T06:14:11.301Z,1005.03
2019-01-15T06:15:11.214Z,1005.12
2019-01-15T06:16:11.126Z,1005.12
2019-01-15T06:17:11.040Z,1005.15
2019-01-15T06:18:10.951Z,1005.11
2019-01-15T06:19:10.865Z,1005.01
2019-01-15T06:20:10.776Z,1005.05
2019-01-15T06:21:10.940Z,1005.01
2019-01-15T06:22:10.603Z,1005.05
2019-01-15T06:23:10.515Z,1004.99
2019-01-15T06:24:10.427Z,1005.00
2019-01-15T06:25:10.345Z,1004.86
2019-01-15T06:26:10.256Z,1004.90
2019-01-15T06:27:10.168Z,1004.96
2019-01-15T06:28:10.090Z,1004.94
2019-01-15T06:29:10.004Z,1004.97
2019-01-15T06:30:09.905Z,1004.93
2019-01-15T06:31:09.829Z,1004.98
2019-01-15T06:32:09.742Z,1004.95
2019-01-15T06:33:09.654Z,1004.82
2019-01-15T06:34:09.567Z,1004.93
2019-01-15T06:35:09.481Z,1004.91
2019-01-15T06:36:09.392Z,1004.92
2019-01-15T06:37:09.306Z,1004.92
2019-01-15T06:38:09.217Z,1004.94
2019-01-15T06:39:09.143Z,1004.92
2019-01-15T06:40:09.043Z,1005.02
2019-01-15T06:41:08.962Z,1004.96
2019-01-15T06:42:08.871Z,1005.04
2019-01-15T06:43:08.780Z,1005.04
2019-01-15T06:44:08.693Z,1005.02
2019-01-15T06:45:08.606Z,1005.00
2019-01-15T06:46:08.770Z,1005.05
2019-01-15T06:47:08.442Z,1005.16
2019-01-15T06:48:08.355Z,1005.04
2019-01-15T06:49:08.270Z,1005.11
2019-01-15T06:50:08.180Z,1005.02
2019-01-15T06:51:08.093Z,1005.06
2019-01-15T06:52:08.010Z,1005.03
2019-01-15T06:53:07.921Z,1005.05
2019-01-15T06:54:07.843Z,1005.01
2019-01-15T06:55:07.745Z,1004.89
2019-01-15T06:56:07.655Z,1004.94
2019-01-15T06:57:07.583Z,1005.00
2019-01-15T06:58:07.488Z,1004.85
2019-01-15T06:59:07.400Z,1004.96
2019-01-15T07:00:07.307Z,1004.96
2019-01-15T07:01:07.231Z,1004.94
2019-01-15T07:02:07.144Z,1004.97
2019-01-15T07:03:07.056Z,1005.05
2019-01-15T07:04:06.975Z,1005.07
2019-01-15T07:05:06.883Z,1005.15
2019-01-15T07:06:06.796Z,1005.07
2019-01-15T07:07:06.707Z,1005.02
2019-01-15T07:08:06.620Z,1004.95
2019-01-15T07:09:06.532Z,1005.06
2019-01-15T07:10:06.450Z,1005.02
2019-01-15T07:11:06.357Z,1005.14
2019-01-15T07:12:06.270Z,1005.10
2019-01-15T07:13:06.182Z,1005.10
2019-01-15T07:14:06.096Z,1005.09
2019-01-15T07:15:06.009Z,1005.11
2019-01-15T07:16:05.933Z,1005.10
2019-01-15T07:17:05.846Z,1005.12
2019-01-15T07:18:05.761Z,1005.11
2019-01-15T07:19:05.673Z,1005.03
2019-01-15T07:20:05.583Z,1005.10
2019-01-15T07:21:05.497Z,1005.17
2019-01-15T07:22:05.409Z,1005.01
2019-01-15T07:23:05.324Z,1004.96
2019-01-15T07:24:05.237Z,1005.02
2019-01-15T07:25:05.147Z,1005.04
2019-01-15T07:26:05.059Z,1004.98
2019-01-15T07:27:04.973Z,1005.02
2019-01-15T07:28:04.885Z,1004.99
2019-01-15T07:29:04.822Z,1004.93
2019-01-15T07:30:04.723Z,1005.06
2019-01-15T07:31:04.638Z,1004.96
2019-01-15T07:32:04.547Z,1004.97
2019-01-15T07:33:04.460Z,1005.00
2019-01-15T07:34:04.374Z,1004.99
2019-01-15T07:35:04.287Z,1005.02
2019-01-15T07:36:04.198Z,1004.93
2019-01-15T07:37:04.112Z,1005.04
2019-01-15T07:38:04.025Z,1004.98
2019-01-15T07:39:03.936Z,1004.97
2019-01-15T07:40:03.860Z,1004.90
2019-01-15T07:41:03.774Z,1004.97
2019-01-15T07:42:03.687Z,1004.99
2019-01-15T07:43:03.599Z,1005.02
2019-01-15T07:44:04.465Z,1004.96
2019-01-15T07:45:03.424Z,1004.91
2019-01-15T07:46:03.340Z,1004.91
2019-01-15T07:47:03.261Z,1004.86
2019-01-15T07:48:03.161Z,1004.96
2019-01-15T07:49:03.074Z,1004.90
2019-01-15T07:50:03.014Z,1004.87
2019-01-15T07:51:02.912Z,1004.85
2019-01-15T07:52:02.825Z,1004.83
2019-01-15T07:53:02.736Z,1004.78
2019-01-15T07:54:02.650Z,1004.72
2019-01-15T07:55:02.562Z,1004.76
2019-01-15T07:56:02.476Z,1004.83
2019-01-15T07:57:02.387Z,1004.81
2019-01-15T07:58:02.357Z,1004.75
2019-01-15T07:59:02.212Z,1004.78
2019-01-15T08:00:02.126Z,1004.81
2019-01-15T08:01:02.081Z,1004.81
2019-01-15T08:02:01.963Z,1004.86
2019-01-15T08:03:01.879Z,1004.86
2019-01-15T08:04:01.789Z,1004.95
2019-01-15T08:05:01.709Z,1004.86
2019-01-15T08:06:01.613Z,1004.71
2019-01-15T08:07:01.528Z,1004.91
2019-01-15T08:08:01.440Z,1004.90
2019-01-15T08:09:01.352Z,1004.91
2019-01-15T08:10:01.264Z,1004.92
2019-01-15T08:11:01.176Z,1004.97
2019-01-15T08:12:01.101Z,1004.80
2019-01-15T08:13:01.014Z,1004.98
2019-01-15T08:14:00.927Z,1004.95
2019-01-15T08:15:00.840Z,1004.93
2019-01-15T08:16:00.752Z,1004.94
2019-01-15T08:17:00.730Z,1004.79
2019-01-15T08:18:00.630Z,1004.87
2019-01-15T08:19:00.543Z,1004.78
2019-01-15T08:20:00.466Z,1004.83
2019-01-15T08:21:00.368Z,1004.85
2019-01-15T08:22:01.501Z,1004.82
2019-01-15T08:23:00.471Z,1004.79
2019-01-15T08:24:00.119Z,1004.85
2019-01-15T08:25:00.032Z,1004.75
2019-01-15T08:26:00.445Z,1004.83
2019-01-15T08:26:59.869Z,1004.78
2019-01-15T08:27:59.984Z,1004.88
2019-01-15T08:28:59.884Z,1004.94
2019-01-15T08:29:59.797Z,1004.97
2019-01-15T08:30:59.508Z,1004.87
2019-01-15T08:31:59.486Z,1004.88
2019-01-15T08:33:00.886Z,1004.91
2019-01-15T08:33:59.385Z,1004.89
2019-01-15T08:34:59.150Z,1004.98
2019-01-15T08:35:59.031Z,1004.77
2019-01-15T08:36:58.941Z,1004.90
2019-01-15T08:37:58.855Z,1004.98
2019-01-15T08:38:58.771Z,1004.92
2019-01-15T08:39:58.680Z,1005.01
2019-01-15T08:40:58.842Z,1004.93
2019-01-15T08:41:58.517Z,1004.93
2019-01-15T08:42:58.422Z,1004.88
2019-01-15T08:43:58.342Z,1004.82
2019-01-15T08:44:58.255Z,1004.84
2019-01-15T08:45:58.168Z,1004.79
2019-01-15T08:46:58.083Z,1004.89
2019-01-15T08:47:58.027Z,1004.90
2019-01-15T08:48:57.906Z,1004.86
2019-01-15T08:49:57.818Z,1004.91
2019-01-15T08:50:57.733Z,1004.79
2019-01-15T08:51:57.656Z,1004.95
2019-01-15T08:52:57.568Z,1004.88
2019-01-15T08:53:57.481Z,1004.77
2019-01-15T08:54:57.394Z,1004.83
2019-01-15T08:55:57.307Z,1004.75
2019-01-15T08:56:57.218Z,1004.93
2019-01-15T08:57:57.131Z,1004.81
2019-01-15T08:58:57.045Z,1004.89
2019-01-15T08:59:56.991Z,1004.95
2019-01-15T09:00:56.871Z,1004.83
2019-01-15T09:01:56.795Z,1004.86
2019-01-15T09:02:56.708Z,1004.85
2019-01-15T09:03:56.823Z,1004.83
2019-01-15T09:04:56.538Z,1004.80
2019-01-15T09:05:56.445Z,1004.79
2019-01-15T09:06:56.423Z,1004.74
2019-01-15T09:07:56.276Z,1004.84
2019-01-15T09:08:56.183Z,1005.03
2019-01-15T09:09:56.110Z,1004.71
2019-01-15T09:10:56.106Z,1004.84
2019-01-15T09:11:55.942Z,1004.92
2019-01-15T09:12:55.846Z,1004.89
2019-01-15T09:13:55.759Z,1004.79
2019-01-15T09:14:56.759Z,1004.70
2019-01-15T09:15:55.588Z,1004.72
2019-01-15T09:16:55.497Z,1004.79
2019-01-15T09:17:55.409Z,1004.90
2019-01-15T09:18:55.321Z,1004.88
2019-01-15T09:19:55.234Z,1004.89
2019-01-15T09:20:55.146Z,1004.86
2019-01-15T09:21:55.062Z,1004.88
2019-01-15T09:22:54.972Z,1004.79
2019-01-15T09:23:54.885Z,1004.85
2019-01-15T09:24:54.810Z,1004.77
2019-01-15T09:25:54.722Z,1004.85
2019-01-15T09:26:54.635Z,1004.95
2019-01-15T09:27:54.547Z,1004.94
2019-01-15T09:28:54.461Z,1004.93
2019-01-15T09:29:54.391Z,1004.95
2019-01-15T09:30:54.286Z,1005.04
2019-01-15T09:31:54.197Z,1005.03
2019-01-15T09:32:54.114Z,1005.09
2019-01-15T09:33:54.023Z,1004.99
2019-01-15T09:34:53.938Z,1004.97
2019-01-15T09:35:53.850Z,1005.13
2019-01-15T09:36:53.773Z,1004.98
2019-01-15T09:37:53.737Z,1005.10
2019-01-15T09:38:53.652Z,1005.03
2019-01-15T09:39:53.839Z,1005.11
2019-01-15T09:40:54.003Z,1005.03
2019-01-15T09:41:53.336Z,1004.94
2019-01-15T09:42:53.248Z,1004.95
2019-01-15T09:43:53.166Z,1005.09
2019-01-15T09:44:53.074Z,1004.96
2019-01-15T09:45:52.987Z,1004.96
2019-01-15T09:46:52.901Z,1004.98
2019-01-15T09:47:52.824Z,1004.96
2019-01-15T09:48:52.737Z,1005.03
2019-01-15T09:49:52.649Z,1004.99
2019-01-15T09:50:52.563Z,1004.93
2019-01-15T09:51:52.474Z,1005.01
2019-01-15T09:52:52.388Z,1004.94
2019-01-15T09:53:52.301Z,1004.95
2019-01-15T09:54:52.224Z,1004.94
2019-01-15T09:55:52.126Z,1004.88
2019-01-15T09:56:52.062Z,1004.86
2019-01-15T09:57:51.964Z,1004.91
2019-01-15T09:58:51.875Z,1004.88
2019-01-15T09:59:51.789Z,1004.91
2019-01-15T10:00:51.701Z,1004.87
2019-01-15T10:01:51.614Z,1004.92
2019-01-15T10:02:51.528Z,1004.99
2019-01-15T10:03:51.440Z,1004.95
2019-01-15T10:04:51.351Z,1004.82
2019-01-15T10:05:51.264Z,1004.86
2019-01-15T10:06:51.178Z,1004.89
2019-01-15T10:07:51.117Z,1004.89
2019-01-15T10:08:51.015Z,1004.82
2019-01-15T10:09:50.926Z,1004.86
2019-01-15T10:10:50.842Z,1004.76
2019-01-15T10:11:50.752Z,1004.91
2019-01-15T10:12:50.664Z,1004.81
2019-01-15T10:13:50.578Z,1004.87
2019-01-15T10:14:50.490Z,1004.78
2019-01-15T10:15:50.419Z,1004.83
2019-01-15T10:16:50.328Z,1004.86
2019-01-15T10:17:50.241Z,1004.83
2019-01-15T10:18:50.153Z,1004.90
2019-01-15T10:19:50.066Z,1004.85
2019-01-15T10:20:50.291Z,1004.85
2019-01-15T10:21:49.891Z,1004.92
2019-01-15T10:22:49.804Z,1004.93
2019-01-15T10:23:49.718Z,1004.86
2019-01-15T10:24:49.643Z,1004.89
2019-01-15T10:25:49.553Z,1004.83
2019-01-15T10:26:49.466Z,1004.91
2019-01-15T10:27:49.380Z,1004.86
2019-01-15T10:28:49.293Z,1004.83
2019-01-15T10:29:49.204Z,1004.83
2019-01-15T10:30:49.117Z,1004.81
2019-01-15T10:31:49.043Z,1004.76
2019-01-15T10:32:48.943Z,1004.73
2019-01-15T10:33:48.868Z,1004.79
2019-01-15T10:34:48.779Z,1004.74
2019-01-15T10:35:48.692Z,1004.76
2019-01-15T10:36:48.604Z,1004.71
2019-01-15T10:37:48.518Z,1004.74
2019-01-15T10:38:48.430Z,1004.66
2019-01-15T10:39:48.343Z,1004.68
2019-01-15T10:40:48.257Z,1004.62
2019-01-15T10:41:48.180Z,1004.63
2019-01-15T10:42:48.094Z,1004.60
2019-01-15T10:43:48.005Z,1004.65
2019-01-15T10:44:48.799Z,1004.58
2019-01-15T10:45:47.833Z,1004.66
2019-01-15T10:46:47.749Z,1004.66
2019-01-15T10:47:47.655Z,1004.64
2019-01-15T10:48:47.583Z,1004.59
2019-01-15T10:49:47.495Z,1004.58
2019-01-15T10:50:47.406Z,1004.64
2019-01-15T10:51:47.322Z,1004.65
2019-01-15T10:52:47.231Z,1004.68
2019-01-15T10:53:47.145Z,1004.64
2019-01-15T10:54:47.057Z,1004.58
2019-01-15T10:55:46.981Z,1004.67
2019-01-15T10:56:46.894Z,1004.56
2019-01-15T10:57:46.811Z,1004.53
2019-01-15T10:58:46.722Z,1004.58
2019-01-15T10:59:46.631Z,1004.50
2019-01-15T11:00:46.550Z,1004.62
2019-01-15T11:01:46.471Z,1004.48
2019-01-15T11:02:46.382Z,1004.49
2019-01-15T11:03:46.295Z,1004.52
2019-01-15T11:04:46.220Z,1004.46
2019-01-15T11:05:46.120Z,1004.45
2019-01-15T11:06:46.032Z,1004.46
2019-01-15T11:07:45.946Z,1004.47
2019-01-15T11:08:45.870Z,1004.50
2019-01-15T11:09:45.783Z,1004.51
2019-01-15T11:10:45.698Z,1004.46
2019-01-15T11:11:45.608Z,1004.42
2019-01-15T11:12:45.522Z,1004.43
2019-01-15T11:13:45.434Z,1004.51
2019-01-15T11:14:45.350Z,1004.57
2019-01-15T11:15:45.273Z,1004.46
2019-01-15T11:16:45.184Z,1004.42
2019-01-15T11:17:45.097Z,1004.48
2019-01-15T11:18:45.009Z,1004.43
2019-01-15T11:19:44.922Z,1004.39
2019-01-15T11:20:44.836Z,1004.35
2019-01-15T11:21:44.773Z,1004.37
2019-01-15T11:22:44.673Z,1004.37
2019-01-15T11:23:44.585Z,1004.40
2019-01-15T11:24:44.502Z,1004.37
2019-01-15T11:25:44.410Z,1004.38
2019-01-15T11:26:44.326Z,1004.31
2019-01-15T11:27:44.250Z,1004.31
2019-01-15T11:28:44.176Z,1004.33
2019-01-15T11:29:44.073Z,1004.38
2019-01-15T11:30:43.985Z,1004.28
2019-01-15T11:31:43.904Z,1004.39
2019-01-15T11:32:43.824Z,1004.38
2019-01-15T11:33:43.736Z,1004.47
2019-01-15T11:34:43.651Z,1004.36
2019-01-15T11:35:43.574Z,1004.30
2019-01-15T11:36:43.473Z,1004.37
2019-01-15T11:37:43.386Z,1004.42
2019-01-15T11:38:43.314Z,1004.33
2019-01-15T11:39:43.225Z,1004.35
2019-01-15T11:40:43.137Z,1004.23
2019-01-15T11:41:43.049Z,1004.27
2019-01-15T11:42:42.963Z,1004.27
2019-01-15T11:43:42.875Z,1004.23
2019-01-15T11:44:42.788Z,1004.21
2019-01-15T11:45:42.713Z,1004.22
2019-01-15T11:46:42.626Z,1004.23
2019-01-15T11:47:42.537Z,1004.18
2019-01-15T11:48:42.451Z,1004.24
2019-01-15T11:49:42.363Z,1004.12
2019-01-15T11:50:42.276Z,1004.14
2019-01-15T11:51:42.207Z,1004.13
2019-01-15T11:52:42.113Z,1004.10
2019-01-15T11:53:42.026Z,1004.19
2019-01-15T11:54:41.942Z,1004.11
2019-01-15T11:55:41.852Z,1004.03
2019-01-15T11:56:41.764Z,1004.08
2019-01-15T11:57:41.676Z,1004.04
2019-01-15T11:58:41.589Z,1004.00
2019-01-15T11:59:41.515Z,1004.00
2019-01-15T12:00:41.430Z,1004.09
2019-01-15T12:01:41.339Z,1004.04
2019-01-15T12:02:41.254Z,1004.03
2019-01-15T12:03:41.165Z,1004.01
2019-01-15T12:04:41.087Z,1004.00